Date,TemperatureHighF,TemperatureAvgF,TemperatureLowF,DewpointHighF,DewpointAvgF,DewpointLowF,HumidityHigh,HumidityAvg,HumidityLow,PressureMaxIn,PressureMinIn,WindSpeedMaxMPH,WindSpeedAvgMPH,GustSpeedMaxMPH,PrecipitationSumIn
2010-1-1,9,3,-7,2,-3,-12,81,77,69,30.72,30.48,20,2,20,0.00
2010-1-2,-1,-7,-17,-6,-14,-21,79,74,63,30.74,30.63,8,1,8,0.00
2010-1-3,8,1,-6,-1,-5,-10,92,74,63,30.68,30.50,9,1,9,0.00
2010-1-4,5,-3,-11,-4,-9,-15,83,77,67,30.54,30.42,11,2,11,0.00
2010-1-5,10,-1,-9,-2,-8,-14,82,71,57,30.44,30.30,10,1,10,0.00
2010-1-6,15,9,0,10,3,-5,88,77,49,30.30,30.05,5,0,5,0.00
2010-1-7,13,8,-1,10,5,-5,88,85,82,30.34,30.00,22,3,24,0.00
2010-1-8,6,2,-3,0,-2,-7,84,81,76,30.53,30.46,11,2,12,0.00
2010-1-9,9,-1,-8,3,-5,-12,92,82,75,30.62,30.50,10,1,10,0.00
2010-1-10,23,22,20,17,15,13,81,74,66,30.09,30.05,19,6,20,0.00
2010-1-11,23,17,13,16,12,9,89,82,71,30.46,30.31,13,1,14,0.00
2010-1-12,22,16,10,16,12,8,91,87,79,30.46,30.09,13,2,13,0.00
2010-1-13,43,38,34,34,32,29,88,80,61,29.83,29.79,14,2,10,0.52
2010-1-14,35,31,28,32,28,25,95,88,73,30.12,29.78,14,2,0,0.01
2010-1-15,29,27,25,26,25,23,94,92,88,30.27,30.11,10,2,0,0.00
2010-1-16,36,31,22,27,25,20,94,78,67,30.08,29.91,11,2,0,0.00
2010-1-17,33,31,29,32,30,28,96,96,95,29.87,29.75,7,2,0,0.01
2010-1-18,30,26,22,29,24,20,100,95,94,29.92,29.85,7,1,0,0.00
2010-1-19,27,25,22,26,23,20,95,94,93,29.92,29.73,16,2,16,0.00
2010-1-20,32,31,25,31,30,24,96,95,90,29.74,29.56,15,1,15,0.10
2010-1-21,33,32,32,32,31,31,96,96,96,29.77,29.62,0,0,0,0.00
2010-1-22,34,33,32,33,32,31,97,97,96,29.80,29.59,17,2,17,0.10
2010-1-23,39,36,34,38,36,33,97,97,97,29.61,29.30,16,3,16,0.30
2010-2-6,30,29,25,22,21,20,81,73,70,30.11,30.08,11,3,0,0.00
2010-2-7,30,29,28,27,26,25,93,91,84,29.97,29.91,10,1,0,0.00
2010-2-8,29,19,3,28,16,-1,94,88,82,30.05,29.89,18,2,18,0.00
2010-2-9,26,16,0,22,-4,-100,87,85,81,30.12,29.94,24,4,24,0.00
2010-2-10,22,14,4,13,9,1,89,81,63,30.24,30.12,13,2,13,0.00
2010-2-11,26,16,0,21,10,-100,90,82,70,30.17,29.96,6,0,0,0.00
2010-2-12,31,26,21,25,22,18,92,87,79,29.97,29.92,6,0,0,0.00
2010-2-13,32,27,24,25,23,21,91,86,75,29.93,29.82,12,1,12,0.00
2010-2-14,25,19,15,23,15,10,93,86,76,29.93,29.84,24,3,14,0.00
2010-2-18,8,8,8,2,2,2,74,74,74,30.11,30.11,0,0,0,0.00
2010-3-4,29,29,29,24,24,24,79,79,79,30.10,30.10,0,0,0,0.00
2010-3-5,45,38,31,29,24,21,71,58,43,30.22,30.14,14,3,0,0.00
2010-3-6,40,36,30,36,30,23,94,79,69,30.18,29.94,12,2,0,0.44
2010-3-7,38,36,34,37,34,33,96,94,90,30.02,29.91,12,2,0,0.03
2010-3-8,46,37,34,39,35,33,96,92,75,30.02,29.70,16,2,0,0.00
2010-3-9,43,38,34,43,37,33,98,97,96,29.70,29.32,13,2,0,0.31
2010-3-10,45,41,37,42,40,37,98,95,87,29.48,29.27,16,2,0,0.11
2010-3-11,44,40,38,43,37,35,97,92,83,29.43,29.21,20,3,0,0.50
2010-3-12,45,39,36,40,37,34,96,91,81,29.65,29.40,13,2,0,0.03
2010-3-13,42,40,37,41,37,34,95,92,87,29.71,29.55,24,5,0,0.07
2010-3-14,54,45,40,47,42,39,98,89,75,30.01,29.71,13,4,0,0.00
2010-3-15,52,42,37,44,39,36,96,89,72,30.22,30.01,17,2,0,0.00
2010-3-16,43,40,36,40,37,34,94,90,84,30.24,30.13,14,2,0,0.00
2010-3-17,59,45,39,47,41,37,99,87,63,30.14,30.00,12,1,0,0.01
2010-3-18,62,48,34,42,38,33,96,73,44,30.01,29.73,19,3,0,0.01
2010-3-19,49,37,28,40,32,27,94,82,72,30.06,29.73,22,4,0,0.00
2010-3-20,39,32,27,27,25,23,94,76,58,30.17,30.05,22,4,0,0.27
2010-3-21,49,37,28,30,25,21,84,64,40,30.11,29.92,14,3,0,0.00
2010-3-22,58,42,26,31,26,21,93,59,26,29.93,29.69,12,1,0,0.00
2010-3-23,60,48,33,44,37,28,86,65,51,29.87,29.66,14,2,0,0.00
2010-3-24,50,47,44,43,39,34,90,75,61,29.93,29.84,10,1,0,0.09
2010-3-25,51,43,35,40,30,20,85,60,37,29.97,29.86,22,4,0,0.00
2010-3-26,54,41,28,29,24,18,77,53,37,29.99,29.78,21,2,0,0.00
2010-3-27,54,46,41,42,34,27,93,66,49,29.81,29.61,14,2,0,0.07
2010-3-28,56,45,37,39,34,31,90,67,40,29.91,29.75,21,4,0,0.01
2010-3-29,64,47,29,38,32,26,91,60,34,29.92,29.65,11,2,0,0.00
2010-3-30,76,60,50,44,40,38,65,49,30,29.65,29.37,20,4,0,0.00
2010-3-31,78,72,63,50,47,42,48,41,35,29.57,29.31,19,3,0,0.00
2010-4-1,82,75,70,59,56,52,55,51,46,29.49,29.41,15,4,0,0.00
2010-4-2,72,61,49,55,50,38,90,67,47,29.70,29.44,20,4,0,0.33
2010-4-3,63,52,38,37,33,28,81,52,29,29.87,29.70,21,5,0,0.00
2010-4-4,64,54,46,42,38,35,76,54,37,29.94,29.77,12,2,0,0.00
2010-4-5,63,52,38,53,42,33,89,71,40,30.04,29.63,13,2,0,0.08
2010-4-6,85,60,52,65,54,47,96,83,33,29.65,29.29,36,4,0,0.67
2010-4-7,52,46,40,48,41,31,90,83,64,29.90,29.56,25,4,0,0.55
2010-4-8,57,44,33,35,30,24,85,61,30,30.00,29.90,20,2,0,0.00
2010-4-9,72,54,32,41,34,28,90,52,27,30.05,29.93,18,3,0,0.00
2010-4-10,66,56,46,42,38,34,71,51,34,30.19,29.97,16,2,0,0.00
2010-4-11,72,59,45,46,41,33,81,55,34,30.29,30.18,10,2,0,0.00
2010-4-12,79,62,52,54,48,43,76,60,38,30.23,30.08,14,2,0,0.00
2010-4-13,81,69,51,54,50,48,91,55,32,30.15,30.02,22,2,0,0.00
2010-4-14,82,72,62,56,52,48,63,50,39,30.18,30.07,24,4,0,0.00
2010-4-15,80,68,59,61,54,50,92,65,40,30.14,30.03,19,3,0,0.07
2010-4-16,63,57,50,56,43,27,79,63,28,30.31,30.13,21,4,0,0.00
2010-4-17,65,57,45,37,30,25,66,38,24,30.24,30.19,14,1,0,0.00
2010-4-18,68,53,38,41,34,27,84,53,24,30.28,30.14,12,1,0,0.00
2010-4-19,72,58,43,39,35,29,74,45,22,30.19,30.04,10,1,0,0.00
2010-4-20,73,59,43,46,39,34,85,50,25,30.07,29.89,10,1,0,0.00
2010-4-21,69,59,48,49,45,41,82,62,43,29.90,29.77,15,2,0,0.00
2010-4-22,73,60,45,53,48,43,95,68,37,29.82,29.72,14,1,0,0.00
2010-4-23,59,58,55,58,55,52,97,93,78,29.73,29.56,17,2,0,0.54
2010-4-24,67,61,53,60,57,52,97,89,72,29.59,29.34,20,2,0,0.76
2010-4-25,56,52,49,55,49,46,95,90,77,29.69,29.33,23,4,0,0.87
2010-4-26,51,48,47,49,46,44,95,92,85,29.79,29.69,17,1,0,0.20
2010-4-27,64,52,44,45,41,36,94,69,38,29.95,29.78,15,2,0,0.01
2010-4-28,70,58,40,47,44,38,95,62,39,29.92,29.60,18,2,0,0.00
2010-4-29,82,69,56,61,54,46,73,60,45,29.59,29.21,28,4,0,0.00
2010-4-30,72,64,58,62,57,48,95,81,51,29.45,29.15,18,2,0,0.37
2010-5-1,70,59,49,54,46,40,89,64,37,29.60,29.45,21,3,0,0.00
2010-5-2,72,58,51,56,51,46,94,80,45,29.71,29.50,12,2,0,0.24
2010-5-3,69,57,44,49,42,34,94,61,28,29.89,29.71,21,3,0,0.01
2010-5-4,83,66,51,53,47,40,81,54,31,29.84,29.56,28,5,0,0.02
2010-5-5,69,58,48,50,40,29,95,57,24,30.01,29.72,27,3,0,0.06
2010-5-6,67,55,41,49,41,36,89,61,39,30.07,29.80,12,1,0,0.00
2010-5-7,59,51,45,50,44,36,94,76,58,30.06,29.60,25,4,0,0.48
2010-5-8,52,44,37,38,34,32,91,68,48,30.37,30.06,23,3,0,0.00
2010-5-9,62,49,32,41,36,31,96,65,42,30.41,30.21,11,1,0,0.00
2010-5-10,55,51,47,46,43,39,95,75,55,30.22,29.66,19,2,0,0.64
2010-5-11,55,50,47,49,46,45,96,87,73,30.07,29.63,12,1,0,0.47
2010-5-12,52,47,44,50,45,42,96,93,87,30.15,29.85,21,2,0,1.01
2010-5-13,57,52,44,52,47,42,97,84,64,30.16,29.74,18,3,0,0.28
2010-5-14,68,55,40,52,44,39,100,72,40,30.31,30.16,15,1,0,0.00
2010-5-15,73,60,44,52,48,42,96,68,41,30.27,30.16,12,0,0,0.00
2010-5-16,64,60,56,53,48,41,85,68,47,30.18,30.07,12,1,0,0.00
2010-5-17,71,60,51,54,50,44,95,72,40,30.12,30.05,10,1,0,0.22
2010-5-18,76,61,44,53,45,39,96,61,29,30.09,29.97,11,1,0,0.00
2010-5-19,75,62,47,55,49,45,96,65,36,30.03,29.93,16,1,0,0.00
2010-5-20,64,58,52,57,54,49,95,85,67,29.95,29.84,18,1,0,0.16
2010-5-21,72,60,56,59,57,55,97,89,58,29.89,29.82,8,0,0,0.02
2010-5-22,86,70,53,72,62,52,97,78,58,29.90,29.64,25,2,0,0.00
2010-5-23,84,77,73,74,71,67,88,80,71,29.88,29.67,15,2,0,0.00
2010-5-24,92,81,70,73,70,68,94,73,49,29.94,29.87,17,2,0,0.00
2010-5-25,88,75,66,70,66,61,95,76,45,30.05,29.89,17,2,0,0.07
2010-5-26,84,73,62,69,63,55,97,75,47,30.10,30.00,12,1,0,0.01
2010-5-27,86,71,56,57,51,42,83,54,22,30.12,30.00,13,1,0,0.00
2010-5-28,86,70,52,58,53,47,94,59,29,30.07,29.92,12,1,0,0.00
2010-5-29,87,73,56,63,56,48,95,61,31,29.95,29.78,17,1,0,0.00
2010-5-30,88,74,63,66,62,59,91,71,41,29.91,29.78,13,2,0,0.06
2010-5-31,83,69,59,60,55,44,92,66,27,29.96,29.88,12,1,0,0.00
2010-6-1,87,70,54,70,62,52,95,76,52,29.91,29.63,14,1,0,1.77
2010-6-2,77,68,62,66,63,59,97,84,62,29.80,29.62,15,2,0,0.01
2010-6-3,80,70,56,62,59,54,96,71,47,29.85,29.70,12,1,0,0.00
2010-6-4,88,75,66,70,66,61,96,74,42,29.72,29.62,15,1,0,0.36
2010-6-5,82,71,61,74,66,57,95,82,59,29.85,29.56,21,3,0,0.69
2010-6-6,83,70,56,61,54,44,96,63,27,29.98,29.84,21,2,0,0.00
2010-6-7,74,68,63,64,60,55,92,76,56,30.03,29.92,9,0,0,0.05
2010-6-8,80,70,65,70,66,61,96,86,70,29.94,29.72,16,1,0,0.76
2010-6-9,85,73,61,64,58,49,96,65,30,29.95,29.84,19,2,0,0.01
2010-6-10,73,68,63,68,62,56,96,81,66,30.01,29.69,18,1,5,0.91
2010-6-11,87,76,67,77,71,65,96,85,64,29.85,29.70,14,1,0,0.38
2010-6-12,83,75,66,75,70,65,97,86,70,30.00,29.82,23,2,0,1.49
2010-6-13,77,69,63,70,66,62,96,90,77,30.05,29.91,14,1,0,0.73
2010-6-14,83,73,66,73,68,65,97,87,66,29.93,29.80,12,1,11,0.24
2010-6-15,79,70,62,68,64,56,97,83,57,29.97,29.83,13,1,11,0.15
2010-6-16,87,72,58,72,63,56,97,75,54,30.07,29.94,11,1,0,0.00
2010-6-17,92,79,67,77,71,59,94,76,54,29.98,29.71,20,2,0,0.21
2010-6-18,82,71,61,74,67,59,96,88,64,30.00,29.73,27,1,0,0.83
2010-6-19,85,75,64,72,65,57,98,75,44,30.06,29.85,17,1,0,0.01
2010-6-20,80,73,67,72,69,65,96,88,73,30.06,29.83,13,0,0,0.20
2010-6-21,82,73,66,74,69,64,97,89,72,30.08,29.81,18,1,3,0.49
2010-6-22,94,80,69,80,72,-100,97,80,51,30.01,29.79,14,-2,9,0.12
2010-6-23,84,76,66,76,69,62,96,80,60,30.07,29.74,21,3,0,0.63
2010-6-24,84,72,62,66,63,60,96,75,49,30.13,30.01,8,1,10,0.00
2010-6-25,88,77,65,73,67,62,93,72,50,30.03,29.74,13,2,0,0.00
2010-6-26,92,78,66,77,71,64,96,80,57,29.96,29.60,25,2,11,1.58
2010-6-27,83,75,67,75,69,65,96,81,66,29.74,29.55,23,2,0,1.04
2010-6-28,82,73,62,66,61,56,91,70,45,30.01,29.73,12,2,24,0.00
2010-6-29,79,69,57,61,57,52,96,70,44,30.16,30.01,5,1,11,0.00
2010-6-30,82,80,76,65,62,59,62,54,49,30.24,30.14,10,1,0,0.00
2010-7-1,84,69,68,61,61,59,78,76,74,30.26,30.14,17,0,0,0.00
2010-7-2,87,76,64,68,62,58,80,63,48,30.16,29.94,13,2,0,0.00
2010-7-3,89,79,69,74,67,59,86,68,59,29.96,29.78,13,2,0,0.00
2010-7-4,78,74,70,74,71,68,96,91,84,29.82,29.72,14,2,19,0.62
2010-7-5,78,73,69,75,71,68,97,95,88,29.81,29.74,9,1,10,0.45
2010-7-6,85,76,70,75,72,70,97,86,61,29.96,29.80,9,1,0,0.00
2010-7-7,84,76,71,75,72,66,97,87,65,30.04,29.95,15,1,0,0.08
2010-7-8,80,74,68,70,66,60,94,79,55,30.09,30.00,14,2,0,0.00
2010-7-9,86,75,63,66,63,55,94,70,38,30.09,29.99,10,1,0,0.00
2010-7-10,87,76,62,67,63,59,96,68,39,30.02,29.83,13,1,0,0.00
2010-7-11,83,73,68,70,67,64,94,81,59,29.85,29.68,13,1,0,0.03
2010-7-12,81,72,67,73,68,65,96,89,70,29.79,29.70,18,0,0,0.41
2010-7-13,89,79,66,76,72,65,97,79,61,29.81,29.72,12,1,0,0.00
2010-7-14,96,85,73,83,77,69,93,78,62,29.89,29.68,23,3,0,0.10
2010-7-15,86,77,68,72,66,60,94,73,45,30.02,29.84,12,1,0,0.02
2010-7-16,90,77,64,74,68,63,96,75,46,30.02,29.86,11,1,0,0.00
2010-7-17,95,84,70,78,73,69,96,74,49,29.94,29.77,12,1,0,0.00
2010-7-18,87,80,70,76,71,66,95,76,55,29.91,29.67,21,2,0,2.50
2010-7-19,81,71,66,73,68,65,96,90,73,30.01,29.78,12,1,0,0.81
2010-7-20,84,76,70,74,71,68,97,85,66,29.97,29.78,11,1,0,0.10
2010-7-21,86,78,69,75,72,68,97,84,64,30.05,29.91,6,1,0,0.00
2010-7-22,92,84,76,78,76,70,91,76,58,29.91,29.67,21,3,0,0.00
2010-7-23,89,82,77,80,77,75,95,84,72,29.82,29.69,22,2,0,0.42
2010-7-24,80,76,69,73,69,67,93,80,72,30.02,29.80,11,1,0,0.00
2010-7-25,86,74,64,70,66,62,96,79,48,30.10,30.02,7,0,0,0.00
2010-7-26,88,76,65,74,69,64,97,80,59,30.07,29.92,12,1,0,0.00
2010-7-27,94,83,72,79,75,70,94,78,58,29.95,29.81,13,1,0,0.00
2010-7-28,86,80,70,76,72,63,91,77,59,30.08,29.85,13,2,0,0.00
2010-7-29,84,73,62,70,65,61,96,77,53,30.13,29.98,7,0,0,0.00
2010-7-30,80,73,69,75,69,65,96,87,74,29.98,29.79,13,1,0,0.94
2010-7-31,87,77,70,74,70,68,98,83,57,29.89,29.81,9,1,0,0.00
2010-8-1,90,78,67,75,70,66,97,78,50,29.93,29.84,11,1,0,0.00
2010-8-2,85,77,71,78,73,69,96,88,74,29.95,29.80,10,0,0,0.27
2010-8-3,91,80,72,80,75,70,97,86,68,29.94,29.82,22,1,0,0.56
2010-8-4,86,77,71,76,73,69,97,88,66,29.91,29.80,17,1,0,0.32
2010-8-5,85,75,67,69,66,61,96,76,47,29.98,29.89,15,1,0,0.01
2010-8-6,86,74,63,71,65,62,96,75,47,30.00,29.88,10,1,0,0.00
2010-8-7,90,79,68,75,70,65,96,76,57,29.91,29.75,13,2,0,0.24
2010-8-8,97,85,76,82,76,70,86,74,59,29.80,29.66,18,2,13,0.05
2010-8-9,88,81,70,80,76,69,96,84,69,29.86,29.79,12,1,0,1.58
2010-8-10,94,82,71,83,75,68,97,82,63,29.94,29.74,16,1,0,1.98
2010-8-11,95,80,70,81,74,69,97,84,58,29.90,29.77,24,1,0,1.37
2010-8-12,94,82,74,82,77,73,97,86,60,29.81,29.65,9,0,0,0.01
2010-8-13,90,81,74,78,74,69,94,81,64,29.69,29.56,16,2,0,0.06
2010-8-14,83,76,72,75,72,69,95,86,75,29.92,29.68,9,0,0,0.00
2010-8-15,82,74,64,69,62,57,89,69,44,30.05,29.91,15,2,0,0.00
2010-8-16,84,71,60,66,60,56,94,73,42,30.11,30.02,11,1,0,0.00
2010-8-17,68,65,63,66,64,61,96,95,94,30.14,30.04,5,0,0,0.75
2010-8-18,84,71,59,71,65,58,99,83,58,30.07,29.86,9,1,0,0.00
2010-8-19,89,78,67,74,70,65,96,79,57,29.90,29.71,14,1,0,0.00
2010-8-20,79,74,70,74,70,67,95,88,75,29.75,29.61,13,1,0,0.57
2010-8-21,92,78,68,79,72,67,97,84,55,29.95,29.69,11,1,0,0.00
2010-8-22,93,80,70,78,73,68,98,81,51,30.05,29.95,6,0,7,0.00
2010-8-23,90,79,69,74,70,67,95,76,53,30.04,29.93,8,1,11,0.00
2010-8-24,79,72,60,69,60,47,94,70,34,30.15,29.95,16,2,19,0.00
2010-8-25,80,67,55,60,55,51,94,70,38,30.22,30.15,14,1,15,0.00
2010-8-26,83,68,55,65,60,53,94,78,48,30.19,30.04,9,0,10,0.00
2010-8-27,87,75,65,66,62,60,85,66,41,30.07,29.92,11,2,15,0.00
2010-8-28,89,75,64,65,60,56,79,62,37,29.98,29.86,16,1,16,0.00
2010-8-29,92,80,68,75,68,60,84,69,53,29.95,29.87,13,2,17,0.00
2010-8-30,89,80,72,74,71,68,86,75,57,30.02,29.87,15,2,15,0.00
2010-8-31,88,80,74,78,74,67,95,82,67,29.91,29.71,14,2,17,1.13
2010-9-1,81,74,67,73,69,65,97,86,71,29.95,29.82,9,1,10,0.07
2010-9-2,79,69,62,69,63,53,94,81,61,29.97,29.61,16,2,17,0.07
2010-9-3,72,63,56,54,50,47,85,65,42,30.09,29.97,23,4,23,0.00
2010-9-4,75,61,50,57,50,46,87,69,41,30.14,29.95,13,1,14,0.00
2010-9-5,83,69,59,65,57,53,93,69,41,29.95,29.64,17,2,19,0.09
2010-9-6,84,72,62,72,61,53,92,68,53,29.86,29.51,17,3,22,0.05
2010-9-7,75,64,56,55,50,47,87,62,41,30.12,29.86,21,4,23,0.00
2010-9-8,77,62,49,60,54,48,95,76,45,30.20,30.04,5,0,6,0.00
2010-9-9,73,66,63,61,57,53,85,71,62,30.04,29.86,13,1,14,0.00
2010-9-10,70,65,62,64,59,55,96,82,65,29.86,29.70,15,1,15,0.29
2010-9-11,78,67,58,63,55,48,96,71,35,30.02,29.82,21,2,21,0.01
2010-9-12,83,65,55,64,56,52,91,76,43,30.08,29.95,14,2,15,0.00
2010-9-13,83,68,58,67,59,54,96,77,38,30.08,29.96,6,0,9,0.08
2010-9-14,83,69,59,68,63,58,97,83,51,30.07,29.98,6,0,7,0.00
2010-9-15,81,69,60,69,63,58,96,83,62,30.02,29.76,13,1,13,0.18
2010-9-16,67,60,52,65,55,50,95,85,74,30.07,29.76,18,2,19,0.00
2010-9-17,82,66,52,67,59,50,96,82,57,30.05,29.91,12,1,13,0.00
2010-9-18,69,56,48,66,53,47,96,91,82,30.28,29.98,14,2,16,1.14
2010-9-19,56,52,48,55,51,47,97,96,94,30.23,30.09,9,1,12,0.49
2010-9-20,89,73,56,74,66,55,98,81,51,30.09,29.73,17,2,20,0.01
2010-9-21,78,71,65,69,66,63,96,84,71,29.86,29.72,17,2,17,1.11
2010-9-22,82,74,70,68,66,65,89,78,58,29.84,29.80,14,2,16,0.01
2010-9-23,79,73,61,71,68,58,95,86,74,29.81,29.60,26,4,32,1.24
2010-9-24,73,62,53,58,50,47,89,67,42,30.17,29.74,19,3,22,0.00
2010-9-25,55,52,50,53,50,48,96,94,88,30.27,30.10,10,0,10,0.58
2010-9-26,68,54,43,54,47,42,97,82,46,30.26,30.07,8,0,9,0.01
2010-9-27,71,56,42,55,48,40,97,77,46,30.08,29.77,14,1,15,0.01
2010-9-28,74,63,54,59,54,51,94,76,50,29.89,29.77,17,2,18,0.00
2010-9-29,83,66,50,61,54,49,97,70,42,29.91,29.71,16,2,16,0.00
2010-9-30,76,64,53,54,49,44,84,62,32,30.12,29.91,14,2,15,0.00
2010-10-1,79,60,46,56,48,42,96,71,30,30.17,30.00,19,1,22,0.00
2010-10-2,59,52,41,48,41,36,89,69,45,30.42,30.09,21,3,21,0.00
2010-10-3,61,45,35,43,37,33,95,76,37,30.50,30.37,9,0,10,0.00
2010-10-4,66,49,36,46,39,34,96,72,35,30.45,30.30,11,1,12,0.00
2010-10-5,72,54,40,51,44,38,93,71,37,30.39,30.24,14,1,14,0.00
2010-10-6,80,62,46,60,49,41,95,66,40,30.24,30.06,13,1,14,0.00
2010-10-7,77,57,41,53,43,34,92,66,26,30.26,30.11,6,0,9,0.00
2010-10-8,87,65,46,63,53,44,92,69,40,30.11,29.91,12,1,12,0.00
2010-10-9,86,68,53,58,54,47,96,66,27,29.98,29.89,14,1,14,0.00
2010-10-10,83,65,52,60,54,49,91,70,33,29.92,29.81,7,0,11,0.00
2010-10-11,76,64,56,59,54,51,92,71,45,29.89,29.81,11,1,12,0.00
2010-10-12,82,63,51,61,53,42,96,72,38,30.14,29.87,18,2,19,0.04
2010-10-13,69,56,45,42,37,30,74,51,25,30.29,30.14,20,2,20,0.00
2010-10-14,76,57,37,42,36,34,90,52,23,30.25,29.92,18,2,19,0.00
2010-10-15,68,53,41,45,39,35,85,62,31,30.17,30.01,9,0,10,0.00
2010-10-16,75,61,50,49,41,32,68,49,37,30.14,29.97,13,2,15,0.00
2010-10-17,67,53,38,42,35,31,88,55,27,30.22,30.04,9,1,10,0.00
2010-10-18,64,51,41,42,37,33,85,62,33,30.12,30.02,11,1,15,0.00
2010-10-19,65,48,35,42,36,32,95,69,30,30.09,29.88,13,1,13,0.00
2010-10-20,73,58,42,40,38,36,85,50,28,29.94,29.82,21,3,25,0.00
2010-10-21,64,50,40,38,32,24,81,53,23,30.11,29.94,12,1,14,0.00
2010-10-22,78,58,38,56,42,31,86,59,37,30.06,29.86,17,2,17,0.00
2010-10-23,74,65,59,65,60,55,95,84,70,29.86,29.68,16,2,16,0.39
2010-10-24,66,62,58,59,56,55,93,83,74,29.69,29.55,14,3,17,0.01
2010-10-25,71,61,51,60,55,49,96,82,65,29.55,28.91,15,1,16,0.01
2010-10-26,68,53,47,57,42,35,91,69,43,29.43,28.89,35,8,40,0.27
2010-10-27,55,47,39,36,33,29,79,58,40,30.06,29.43,29,8,32,0.01
2010-10-28,48,40,36,32,30,25,78,65,45,30.45,30.06,20,4,24,0.00
2010-10-29,64,46,28,34,29,24,92,56,32,30.45,29.92,19,3,20,0.00
2010-10-30,69,56,44,42,37,31,75,50,31,30.06,29.81,18,4,21,0.00
2010-10-31,53,44,35,37,34,29,90,71,50,30.29,30.06,13,2,13,0.00
2010-11-1,56,44,33,35,31,28,83,63,40,30.43,30.28,13,1,14,0.00
2010-11-2,57,42,30,36,32,26,100,70,31,30.46,30.21,9,1,10,0.00
2010-11-3,63,51,39,41,33,26,81,53,25,30.22,30.05,25,3,33,0.00
2010-11-4,50,44,36,35,28,18,77,56,31,30.18,30.08,25,4,29,0.00
2010-11-5,49,36,26,26,20,16,77,54,28,30.28,30.18,13,1,16,0.00
2010-11-6,59,44,28,27,23,18,79,47,28,30.33,30.15,19,3,21,0.00
2010-11-7,71,57,46,41,34,26,53,42,33,30.15,29.90,15,4,18,0.00
2010-11-8,69,55,46,43,38,34,81,54,37,29.89,29.74,14,4,20,0.00
2010-11-9,73,60,45,50,46,40,84,64,43,29.82,29.72,13,2,17,0.00
2010-11-10,68,58,43,55,48,38,85,68,59,30.14,29.78,18,4,21,0.00
2010-11-11,56,44,34,39,35,32,95,73,44,30.42,30.14,8,1,11,0.00
2010-11-12,46,42,40,41,39,34,96,92,63,30.42,29.92,18,4,21,2.02
2010-11-13,48,39,34,48,35,30,97,88,80,30.02,29.71,20,5,24,0.18
2010-11-14,44,35,30,32,30,28,93,81,58,30.01,29.84,16,2,17,0.00
2010-11-15,52,39,29,39,33,27,100,82,57,29.84,29.77,11,1,12,0.01
2010-11-16,44,39,36,39,36,32,95,88,71,29.87,29.68,10,1,11,0.01
2010-11-17,40,37,33,34,31,27,93,80,68,30.36,29.87,24,2,24,0.00
2010-11-18,39,34,31,31,28,25,85,78,64,30.45,30.12,15,2,15,0.00
2010-11-19,47,38,30,37,32,23,83,78,66,30.21,29.94,21,4,25,0.00
2010-11-20,41,34,26,36,27,20,84,74,66,30.27,29.96,15,3,17,0.00
2010-11-21,54,44,36,52,41,33,96,91,83,29.96,29.71,14,2,15,0.04
2010-11-22,37,31,28,36,27,24,96,82,79,30.12,29.74,13,3,17,0.02
2010-11-23,32,25,18,25,16,12,82,70,51,30.38,30.13,13,2,18,0.00
2010-11-24,37,32,25,36,28,19,96,87,74,30.20,29.65,18,3,21,0.07
2010-11-25,28,22,16,22,11,5,86,64,40,30.06,29.86,19,3,21,0.00
2010-11-26,38,31,19,28,20,9,74,62,54,30.07,29.95,17,4,20,0.00
2010-11-27,35,30,25,28,26,22,90,82,74,30.18,30.06,5,1,6,0.00
2010-11-29,51,41,28,46,36,23,93,84,67,29.74,29.51,21,4,23,0.27
2010-11-30,28,25,23,23,18,14,82,75,68,30.07,29.73,25,5,27,0.00
2010-12-1,32,23,15,20,15,10,81,71,60,30.19,30.06,17,4,19,0.00
2010-12-2,40,30,23,24,21,18,89,68,50,30.31,30.13,11,1,11,0.00
2010-12-3,33,27,20,26,22,17,91,82,72,30.30,29.99,12,2,14,0.00
2010-12-4,30,27,24,27,22,18,90,81,76,30.42,30.01,26,4,29,0.00
2010-12-5,23,15,11,14,10,7,92,78,67,30.61,30.52,15,2,16,0.00
2010-12-6,27,18,13,17,13,9,92,78,65,30.55,30.33,14,2,17,0.00
2010-12-7,25,16,10,13,10,6,86,76,60,30.41,30.32,10,1,0,0.00
2010-12-8,30,22,9,14,12,6,89,67,48,30.39,30.30,6,1,0,0.00
2010-12-9,46,35,30,34,22,14,83,60,50,30.30,29.80,12,2,19,0.00
2010-12-10,51,44,27,37,31,24,89,61,48,30.02,29.75,14,1,17,0.00
2010-12-11,46,29,16,39,25,13,93,85,67,29.94,29.48,33,7,40,0.15
2010-12-12,16,11,4,13,4,-1,89,75,56,30.38,29.94,30,8,38,0.00
2010-12-13,11,7,5,4,2,1,85,81,72,30.41,30.38,2,0,0,0.00
2010-12-14,18,12,6,11,5,1,80,74,68,30.38,30.15,9,1,0,0.00
2010-12-15,24,22,19,20,16,11,89,77,70,30.07,29.83,13,2,14,0.00
2010-12-16,26,22,13,22,18,9,89,86,79,30.16,29.83,16,2,16,0.00
2010-12-17,24,18,9,18,12,6,87,81,70,30.28,30.16,16,3,17,0.00
2010-12-18,26,19,11,19,13,8,87,75,53,30.22,30.11,16,2,16,2.62
2010-12-19,25,18,8,21,14,5,89,84,72,30.16,30.04,10,1,0,0.00
2010-12-20,35,31,25,30,27,21,89,85,80,30.05,29.77,14,2,15,0.03
2010-12-21,34,26,18,30,20,12,94,80,65,30.31,29.88,15,2,18,0.00
2010-12-22,30,25,17,25,20,13,86,84,81,30.58,30.31,12,2,12,0.00
2010-12-23,31,30,28,27,25,24,88,81,76,30.56,30.35,11,1,12,0.00
2010-12-24,30,28,23,28,26,20,94,91,88,30.42,30.25,14,2,16,0.00
2010-12-25,24,19,13,21,16,10,90,87,82,30.54,30.42,13,3,19,0.00
2010-12-26,16,13,11,14,10,-100,100,89,84,30.56,30.42,10,1,14,0.00
2010-12-27,22,14,6,20,12,3,91,89,83,30.42,30.20,10,2,15,0.00
2010-12-28,40,26,14,28,21,12,93,83,58,30.19,29.94,7,2,0,0.19
2010-12-29,40,34,26,39,32,23,96,93,87,29.94,29.49,12,2,18,0.09
2010-12-30,61,45,23,52,40,-100,100,87,56,29.70,29.27,15,3,21,0.00
2010-12-31,34,25,20,33,22,-4,95,87,78,29.87,29.56,27,4,30,0.00
2011-1-1,17,12,8,8,2,-5,73,63,53,30.27,29.85,26,7,27,0.00
2011-1-2,34,22,9,17,12,4,81,65,48,30.26,30.09,18,3,18,0.00